sensor_id;sensor_type;location;lat;lon;timestamp;pressure;altitude;pressure_sealevel;temperature;humidity
70930;BME280;58588;48.102;19.682;2023-06-26T00:02:06;99380.31;;;18.74;100.00
70930;BME280;58588;48.102;19.682;2023-06-26T00:05:08;99389.81;;;18.71;100.00
70930;BME280;58588;48.102;19.682;2023-06-26T00:08:11;99386.34;;;18.64;100.00
70930;BME280;58588;48.102;19.682;2023-06-26T00:11:13;99384.38;;;18.59;100.00
70930;BME280;58588;48.102;19.682;2023-06-26T00:14:15;99389.94;;;18.53;100.00
70930;BME280;58588;48.102;19.682;2023-06-26T00:17:19;99379.41;;;18.44;100.00
70930;BME280;58588;48.102;19.682;2023-06-26T00:20:21;99388.09;;;18.41;100.00
70930;BME280;58588;48.102;19.682;2023-06-26T00:23:26;99386.31;;;18.24;100.00
70930;BME280;58588;48.102;19.682;2023-06-26T00:26:31;99385.81;;;18.27;100.00
70930;BME280;58588;48.102;19.682;2023-06-26T00:29:33;99382.13;;;18.33;100.00
70930;BME280;58588;48.102;19.682;2023-06-26T00:32:35;99381.44;;;18.26;100.00
70930;BME280;58588;48.102;19.682;2023-06-26T00:35:37;99385.00;;;18.14;100.00
70930;BME280;58588;48.102;19.682;2023-06-26T00:38:41;99382.84;;;18.05;100.00
70930;BME280;58588;48.102;19.682;2023-06-26T00:41:43;99384.16;;;17.90;100.00
70930;BME280;58588;48.102;19.682;2023-06-26T00:44:45;99386.44;;;17.94;100.00
70930;BME280;58588;48.102;19.682;2023-06-26T00:47:47;99387.59;;;17.98;100.00
70930;BME280;58588;48.102;19.682;2023-06-26T00:50:49;99380.50;;;17.97;100.00
70930;BME280;58588;48.102;19.682;2023-06-26T00:53:53;99378.72;;;18.02;100.00
70930;BME280;58588;48.102;19.682;2023-06-26T00:56:55;99374.78;;;17.98;100.00
70930;BME280;58588;48.102;19.682;2023-06-26T00:59:57;99376.94;;;17.84;100.00
70930;BME280;58588;48.102;19.682;2023-06-26T01:02:59;99373.13;;;17.85;100.00
70930;BME280;58588;48.102;19.682;2023-06-26T01:06:02;99380.03;;;17.76;100.00
70930;BME280;58588;48.102;19.682;2023-06-26T01:09:05;99369.13;;;17.76;100.00
70930;BME280;58588;48.102;19.682;2023-06-26T01:12:07;99373.44;;;17.65;100.00
70930;BME280;58588;48.102;19.682;2023-06-26T01:15:10;99365.84;;;17.56;100.00
70930;BME280;58588;48.102;19.682;2023-06-26T01:18:12;99366.41;;;17.34;100.00
70930;BME280;58588;48.102;19.682;2023-06-26T01:21:16;99356.31;;;17.35;100.00
70930;BME280;58588;48.102;19.682;2023-06-26T01:24:21;99363.91;;;17.45;100.00
70930;BME280;58588;48.102;19.682;2023-06-26T01:27:30;99368.50;;;17.32;100.00
70930;BME280;58588;48.102;19.682;2023-06-26T01:30:34;99366.56;;;17.21;100.00
70930;BME280;58588;48.102;19.682;2023-06-26T01:33:37;99363.78;;;17.28;100.00
70930;BME280;58588;48.102;19.682;2023-06-26T01:36:39;99352.16;;;17.32;100.00
70930;BME280;58588;48.102;19.682;2023-06-26T01:39:41;99355.22;;;17.24;100.00
70930;BME280;58588;48.102;19.682;2023-06-26T01:42:45;99357.25;;;17.29;100.00
70930;BME280;58588;48.102;19.682;2023-06-26T01:45:50;99353.31;;;17.25;100.00
70930;BME280;58588;48.102;19.682;2023-06-26T01:48:58;99352.34;;;17.19;100.00
70930;BME280;58588;48.102;19.682;2023-06-26T01:52:07;99356.41;;;17.17;100.00
70930;BME280;58588;48.102;19.682;2023-06-26T01:55:17;99360.91;;;17.23;100.00
70930;BME280;58588;48.102;19.682;2023-06-26T01:58:24;99364.19;;;17.13;100.00
70930;BME280;58588;48.102;19.682;2023-06-26T02:01:27;99349.66;;;16.89;100.00
70930;BME280;58588;48.102;19.682;2023-06-26T02:04:29;99350.25;;;16.91;100.00
70930;BME280;58588;48.102;19.682;2023-06-26T02:07:31;99344.88;;;16.84;100.00
70930;BME280;58588;48.102;19.682;2023-06-26T02:10:33;99355.72;;;16.73;100.00
70930;BME280;58588;48.102;19.682;2023-06-26T02:13:36;99349.44;;;16.72;100.00
70930;BME280;58588;48.102;19.682;2023-06-26T02:16:38;99349.59;;;16.77;100.00
70930;BME280;58588;48.102;19.682;2023-06-26T02:19:40;99346.44;;;16.80;100.00
70930;BME280;58588;48.102;19.682;2023-06-26T02:22:48;99345.81;;;16.78;100.00
70930;BME280;58588;48.102;19.682;2023-06-26T02:25:50;99348.91;;;16.82;100.00
70930;BME280;58588;48.102;19.682;2023-06-26T02:28:53;99339.09;;;16.81;100.00
70930;BME280;58588;48.102;19.682;2023-06-26T02:31:55;99343.00;;;16.67;100.00
70930;BME280;58588;48.102;19.682;2023-06-26T02:34:57;99336.72;;;16.66;100.00
70930;BME280;58588;48.102;19.682;2023-06-26T02:37:59;99342.97;;;16.73;100.00
70930;BME280;58588;48.102;19.682;2023-06-26T02:41:01;99341.50;;;16.71;100.00
70930;BME280;58588;48.102;19.682;2023-06-26T02:44:05;99333.50;;;16.57;100.00
70930;BME280;58588;48.102;19.682;2023-06-26T02:47:07;99353.38;;;16.76;100.00
70930;BME280;58588;48.102;19.682;2023-06-26T02:50:09;99351.88;;;16.80;100.00
70930;BME280;58588;48.102;19.682;2023-06-26T02:53:11;99349.09;;;16.50;100.00
70930;BME280;58588;48.102;19.682;2023-06-26T02:56:13;99342.41;;;16.46;100.00
70930;BME280;58588;48.102;19.682;2023-06-26T02:59:17;99329.25;;;16.43;100.00
70930;BME280;58588;48.102;19.682;2023-06-26T03:02:19;99356.41;;;16.68;100.00
70930;BME280;58588;48.102;19.682;2023-06-26T03:05:21;99357.66;;;16.66;100.00
70930;BME280;58588;48.102;19.682;2023-06-26T03:08:24;99355.72;;;16.73;100.00
70930;BME280;58588;48.102;19.682;2023-06-26T03:11:26;99354.34;;;16.82;100.00
70930;BME280;58588;48.102;19.682;2023-06-26T03:14:29;99359.81;;;16.82;100.00
70930;BME280;58588;48.102;19.682;2023-06-26T03:17:32;99365.41;;;16.87;100.00
70930;BME280;58588;48.102;19.682;2023-06-26T03:20:34;99361.06;;;16.98;100.00
70930;BME280;58588;48.102;19.682;2023-06-26T03:23:36;99361.00;;;17.16;100.00
70930;BME280;58588;48.102;19.682;2023-06-26T03:26:38;99354.53;;;17.29;100.00
70930;BME280;58588;48.102;19.682;2023-06-26T03:29:42;99359.06;;;17.35;100.00
70930;BME280;58588;48.102;19.682;2023-06-26T03:32:44;99362.47;;;17.30;100.00
70930;BME280;58588;48.102;19.682;2023-06-26T03:35:46;99357.75;;;17.37;100.00
70930;BME280;58588;48.102;19.682;2023-06-26T03:38:48;99357.50;;;17.39;100.00
70930;BME280;58588;48.102;19.682;2023-06-26T03:41:50;99348.84;;;17.30;100.00
70930;BME280;58588;48.102;19.682;2023-06-26T03:44:55;99367.88;;;17.60;100.00
70930;BME280;58588;48.102;19.682;2023-06-26T03:47:57;99364.78;;;17.69;100.00
70930;BME280;58588;48.102;19.682;2023-06-26T03:50:59;99357.38;;;17.76;100.00
70930;BME280;58588;48.102;19.682;2023-06-26T03:54:03;99344.09;;;17.79;100.00
70930;BME280;58588;48.102;19.682;2023-06-26T03:57:05;99371.22;;;17.86;100.00
70930;BME280;58588;48.102;19.682;2023-06-26T04:00:10;99370.06;;;17.94;100.00
70930;BME280;58588;48.102;19.682;2023-06-26T04:03:13;99373.50;;;17.89;100.00
70930;BME280;58588;48.102;19.682;2023-06-26T04:06:15;99363.19;;;17.91;100.00
70930;BME280;58588;48.102;19.682;2023-06-26T04:09:17;99365.53;;;18.11;100.00
70930;BME280;58588;48.102;19.682;2023-06-26T04:12:19;99373.13;;;18.21;100.00
70930;BME280;58588;48.102;19.682;2023-06-26T04:15:23;99370.38;;;18.44;100.00
70930;BME280;58588;48.102;19.682;2023-06-26T04:18:25;99376.66;;;18.56;100.00
70930;BME280;58588;48.102;19.682;2023-06-26T04:21:27;99367.84;;;18.66;100.00
70930;BME280;58588;48.102;19.682;2023-06-26T04:24:29;99360.47;;;18.66;100.00
70930;BME280;58588;48.102;19.682;2023-06-26T04:27:31;99357.03;;;18.71;100.00
70930;BME280;58588;48.102;19.682;2023-06-26T04:30:35;99384.09;;;18.84;100.00
70930;BME280;58588;48.102;19.682;2023-06-26T04:33:39;99371.97;;;18.80;100.00
70930;BME280;58588;48.102;19.682;2023-06-26T04:36:41;99376.72;;;18.85;100.00
70930;BME280;58588;48.102;19.682;2023-06-26T04:39:48;99378.53;;;19.08;100.00
70930;BME280;58588;48.102;19.682;2023-06-26T04:42:50;99379.47;;;19.13;100.00
70930;BME280;58588;48.102;19.682;2023-06-26T04:45:53;99375.25;;;19.22;100.00
70930;BME280;58588;48.102;19.682;2023-06-26T04:48:56;99382.50;;;19.45;100.00
70930;BME280;58588;48.102;19.682;2023-06-26T04:51:59;99383.97;;;19.65;100.00
70930;BME280;58588;48.102;19.682;2023-06-26T04:55:01;99378.16;;;19.78;100.00
70930;BME280;58588;48.102;19.682;2023-06-26T04:58:03;99378.97;;;19.78;100.00
70930;BME280;58588;48.102;19.682;2023-06-26T05:01:06;99378.59;;;19.87;100.00
70930;BME280;58588;48.102;19.682;2023-06-26T05:04:08;99383.53;;;19.90;100.00
70930;BME280;58588;48.102;19.682;2023-06-26T05:07:10;99373.84;;;19.99;100.00
70930;BME280;58588;48.102;19.682;2023-06-26T05:10:13;99392.72;;;20.17;100.00
70930;BME280;58588;48.102;19.682;2023-06-26T05:13:15;99378.63;;;20.09;100.00
70930;BME280;58588;48.102;19.682;2023-06-26T05:16:19;99380.53;;;20.25;100.00
70930;BME280;58588;48.102;19.682;2023-06-26T05:19:21;99387.97;;;20.46;100.00
70930;BME280;58588;48.102;19.682;2023-06-26T05:22:24;99374.59;;;20.33;100.00
70930;BME280;58588;48.102;19.682;2023-06-26T05:25:27;99379.66;;;20.41;100.00
70930;BME280;58588;48.102;19.682;2023-06-26T05:28:31;99379.97;;;20.45;100.00
70930;BME280;58588;48.102;19.682;2023-06-26T05:31:36;99396.72;;;20.65;100.00
70930;BME280;58588;48.102;19.682;2023-06-26T05:34:41;99380.16;;;20.55;100.00
70930;BME280;58588;48.102;19.682;2023-06-26T05:37:43;99395.69;;;20.71;100.00
70930;BME280;58588;48.102;19.682;2023-06-26T05:40:47;99388.81;;;20.69;100.00
70930;BME280;58588;48.102;19.682;2023-06-26T05:43:49;99390.59;;;20.58;100.00
70930;BME280;58588;48.102;19.682;2023-06-26T05:46:52;99393.00;;;20.38;100.00
70930;BME280;58588;48.102;19.682;2023-06-26T05:49:54;99386.06;;;20.30;100.00
70930;BME280;58588;48.102;19.682;2023-06-26T05:52:57;99380.97;;;20.55;100.00
70930;BME280;58588;48.102;19.682;2023-06-26T05:56:00;99379.94;;;20.62;100.00
70930;BME280;58588;48.102;19.682;2023-06-26T05:59:02;99381.28;;;20.81;100.00
70930;BME280;58588;48.102;19.682;2023-06-26T06:02:07;99389.75;;;21.01;100.00
70930;BME280;58588;48.102;19.682;2023-06-26T06:05:09;99377.97;;;21.01;100.00
70930;BME280;58588;48.102;19.682;2023-06-26T06:08:12;99389.84;;;21.33;100.00
70930;BME280;58588;48.102;19.682;2023-06-26T06:11:14;99392.81;;;21.54;100.00
70930;BME280;58588;48.102;19.682;2023-06-26T06:14:16;99374.66;;;21.53;100.00
70930;BME280;58588;48.102;19.682;2023-06-26T06:17:19;99392.50;;;21.82;100.00
70930;BME280;58588;48.102;19.682;2023-06-26T06:20:22;99380.00;;;21.97;100.00
70930;BME280;58588;48.102;19.682;2023-06-26T06:23:24;99392.94;;;22.06;100.00
70930;BME280;58588;48.102;19.682;2023-06-26T06:26:26;99389.81;;;22.25;100.00
70930;BME280;58588;48.102;19.682;2023-06-26T06:29:28;99399.28;;;22.44;100.00
70930;BME280;58588;48.102;19.682;2023-06-26T06:32:32;99407.56;;;22.49;100.00
70930;BME280;58588;48.102;19.682;2023-06-26T06:35:34;99397.41;;;22.55;100.00
70930;BME280;58588;48.102;19.682;2023-06-26T06:38:36;99397.97;;;22.57;100.00
70930;BME280;58588;48.102;19.682;2023-06-26T06:41:38;99396.69;;;22.75;100.00
70930;BME280;58588;48.102;19.682;2023-06-26T06:44:40;99388.66;;;22.63;100.00
70930;BME280;58588;48.102;19.682;2023-06-26T06:47:43;99400.03;;;22.82;100.00
70930;BME280;58588;48.102;19.682;2023-06-26T06:50:45;99402.28;;;22.95;100.00
70930;BME280;58588;48.102;19.682;2023-06-26T06:53:47;99396.97;;;22.73;100.00
70930;BME280;58588;48.102;19.682;2023-06-26T06:56:50;99399.94;;;22.66;100.00
70930;BME280;58588;48.102;19.682;2023-06-26T06:59:52;99401.78;;;22.51;100.00
70930;BME280;58588;48.102;19.682;2023-06-26T07:02:55;99396.63;;;22.64;100.00
70930;BME280;58588;48.102;19.682;2023-06-26T07:05:58;99400.94;;;22.92;100.00
70930;BME280;58588;48.102;19.682;2023-06-26T07:09:00;99400.19;;;23.17;100.00
70930;BME280;58588;48.102;19.682;2023-06-26T07:12:03;99407.94;;;23.41;100.00
70930;BME280;58588;48.102;19.682;2023-06-26T07:15:06;99405.53;;;23.90;100.00
70930;BME280;58588;48.102;19.682;2023-06-26T07:18:10;99401.41;;;24.13;100.00
70930;BME280;58588;48.102;19.682;2023-06-26T07:21:12;99390.09;;;24.35;100.00
70930;BME280;58588;48.102;19.682;2023-06-26T07:24:14;99397.66;;;24.89;100.00
70930;BME280;58588;48.102;19.682;2023-06-26T07:27:16;99387.25;;;24.66;100.00
70930;BME280;58588;48.102;19.682;2023-06-26T07:30:19;99395.41;;;24.96;100.00
70930;BME280;58588;48.102;19.682;2023-06-26T07:33:23;99401.06;;;25.25;100.00
70930;BME280;58588;48.102;19.682;2023-06-26T07:36:25;99385.13;;;25.56;100.00
70930;BME280;58588;48.102;19.682;2023-06-26T07:39:27;99393.78;;;25.84;100.00
70930;BME280;58588;48.102;19.682;2023-06-26T07:42:29;99400.44;;;25.78;100.00
70930;BME280;58588;48.102;19.682;2023-06-26T07:45:31;99396.28;;;25.85;100.00
70930;BME280;58588;48.102;19.682;2023-06-26T07:48:34;99390.47;;;26.16;100.00
70930;BME280;58588;48.102;19.682;2023-06-26T07:51:37;99387.84;;;26.01;100.00
70930;BME280;58588;48.102;19.682;2023-06-26T07:54:39;99396.22;;;26.20;100.00
70930;BME280;58588;48.102;19.682;2023-06-26T07:57:41;99402.59;;;25.91;99.67
70930;BME280;58588;48.102;19.682;2023-06-26T08:00:43;99400.94;;;26.19;99.47
70930;BME280;58588;48.102;19.682;2023-06-26T08:03:46;99393.72;;;26.23;99.66
70930;BME280;58588;48.102;19.682;2023-06-26T08:06:49;99387.41;;;26.47;95.71
70930;BME280;58588;48.102;19.682;2023-06-26T08:09:52;99399.53;;;26.51;97.12
70930;BME280;58588;48.102;19.682;2023-06-26T08:12:54;99397.53;;;26.27;96.26
70930;BME280;58588;48.102;19.682;2023-06-26T08:15:56;99394.66;;;26.37;98.33
70930;BME280;58588;48.102;19.682;2023-06-26T08:19:00;99398.38;;;25.99;96.17
70930;BME280;58588;48.102;19.682;2023-06-26T08:22:02;99402.47;;;26.59;100.00
70930;BME280;58588;48.102;19.682;2023-06-26T08:25:05;99402.06;;;26.95;88.32
70930;BME280;58588;48.102;19.682;2023-06-26T08:28:07;99410.06;;;26.97;87.43
70930;BME280;58588;48.102;19.682;2023-06-26T08:31:09;99402.78;;;27.06;93.29
70930;BME280;58588;48.102;19.682;2023-06-26T08:34:12;99402.78;;;26.82;86.88
70930;BME280;58588;48.102;19.682;2023-06-26T08:37:14;99402.28;;;27.41;79.72
70930;BME280;58588;48.102;19.682;2023-06-26T08:40:20;99401.22;;;27.37;79.72
70930;BME280;58588;48.102;19.682;2023-06-26T08:43:22;99398.69;;;27.41;82.69
70930;BME280;58588;48.102;19.682;2023-06-26T08:46:25;99396.03;;;27.87;77.57
70930;BME280;58588;48.102;19.682;2023-06-26T08:49:36;99388.28;;;28.91;86.24
70930;BME280;58588;48.102;19.682;2023-06-26T08:52:43;99395.81;;;28.49;74.75
70930;BME280;58588;48.102;19.682;2023-06-26T08:55:49;99395.19;;;28.06;80.20
70930;BME280;58588;48.102;19.682;2023-06-26T08:58:54;99397.94;;;28.06;76.65
70930;BME280;58588;48.102;19.682;2023-06-26T09:01:56;99404.03;;;27.89;75.09
70930;BME280;58588;48.102;19.682;2023-06-26T09:05:00;99396.13;;;28.61;88.72
70930;BME280;58588;48.102;19.682;2023-06-26T09:08:03;99394.59;;;29.10;74.46
70930;BME280;58588;48.102;19.682;2023-06-26T09:11:05;99395.28;;;29.29;74.03
70930;BME280;58588;48.102;19.682;2023-06-26T09:14:08;99395.22;;;29.43;74.23
70930;BME280;58588;48.102;19.682;2023-06-26T09:17:10;99393.59;;;29.42;70.94
70930;BME280;58588;48.102;19.682;2023-06-26T09:20:16;99393.97;;;29.13;73.45
70930;BME280;58588;48.102;19.682;2023-06-26T09:23:18;99399.03;;;29.47;73.63
70930;BME280;58588;48.102;19.682;2023-06-26T09:26:21;99391.75;;;29.74;68.17
70930;BME280;58588;48.102;19.682;2023-06-26T09:29:23;99396.22;;;29.61;65.99
70930;BME280;58588;48.102;19.682;2023-06-26T09:32:27;99394.72;;;30.00;72.08
70930;BME280;58588;48.102;19.682;2023-06-26T09:35:31;99400.44;;;30.17;68.59
70930;BME280;58588;48.102;19.682;2023-06-26T09:38:34;99390.00;;;29.78;65.78
70930;BME280;58588;48.102;19.682;2023-06-26T09:41:36;99384.88;;;29.71;65.55
70930;BME280;58588;48.102;19.682;2023-06-26T09:44:43;99380.19;;;30.03;65.26
70930;BME280;58588;48.102;19.682;2023-06-26T09:47:46;99384.94;;;30.25;61.97
70930;BME280;58588;48.102;19.682;2023-06-26T09:50:49;99379.72;;;30.09;62.72
70930;BME280;58588;48.102;19.682;2023-06-26T09:53:51;99384.50;;;30.40;68.17
70930;BME280;58588;48.102;19.682;2023-06-26T09:56:55;99379.16;;;30.92;65.13
70930;BME280;58588;48.102;19.682;2023-06-26T09:59:58;99380.75;;;30.76;62.22
70930;BME280;58588;48.102;19.682;2023-06-26T10:03:00;99378.22;;;30.03;58.94
70930;BME280;58588;48.102;19.682;2023-06-26T10:06:04;99374.66;;;30.65;63.91
70930;BME280;58588;48.102;19.682;2023-06-26T10:09:07;99364.25;;;30.48;60.83
70930;BME280;58588;48.102;19.682;2023-06-26T10:12:14;99362.94;;;30.15;62.55
70930;BME280;58588;48.102;19.682;2023-06-26T10:15:20;99363.94;;;30.50;59.49
70930;BME280;58588;48.102;19.682;2023-06-26T10:18:24;99363.69;;;30.69;62.94
70930;BME280;58588;48.102;19.682;2023-06-26T10:21:29;99363.13;;;29.51;62.06
70930;BME280;58588;48.102;19.682;2023-06-26T10:24:35;99358.78;;;30.34;66.25
70930;BME280;58588;48.102;19.682;2023-06-26T10:27:41;99348.44;;;30.04;61.53
70930;BME280;58588;48.102;19.682;2023-06-26T10:30:46;99350.63;;;30.38;63.93
70930;BME280;58588;48.102;19.682;2023-06-26T10:33:49;99356.44;;;31.16;57.27
70930;BME280;58588;48.102;19.682;2023-06-26T10:37:00;99347.72;;;30.52;58.00
70930;BME280;58588;48.102;19.682;2023-06-26T10:40:02;99352.00;;;31.06;58.18
70930;BME280;58588;48.102;19.682;2023-06-26T10:43:06;99353.97;;;31.23;56.99
70930;BME280;58588;48.102;19.682;2023-06-26T10:46:09;99346.81;;;31.48;60.60
70930;BME280;58588;48.102;19.682;2023-06-26T10:49:12;99342.97;;;32.13;59.29
70930;BME280;58588;48.102;19.682;2023-06-26T10:52:15;99344.94;;;30.91;63.40
70930;BME280;58588;48.102;19.682;2023-06-26T10:55:27;99341.78;;;30.76;60.14
70930;BME280;58588;48.102;19.682;2023-06-26T10:58:33;99342.06;;;30.03;60.24
70930;BME280;58588;48.102;19.682;2023-06-26T11:01:40;99335.19;;;29.70;58.48
70930;BME280;58588;48.102;19.682;2023-06-26T11:04:45;99328.06;;;29.41;57.00
70930;BME280;58588;48.102;19.682;2023-06-26T11:11:17;99336.19;;;29.01;56.58
70930;BME280;58588;48.102;19.682;2023-06-26T11:14:20;99330.47;;;29.34;55.15
70930;BME280;58588;48.102;19.682;2023-06-26T11:17:24;99327.81;;;30.19;55.93
70930;BME280;58588;48.102;19.682;2023-06-26T11:20:27;99339.09;;;31.28;52.15
70930;BME280;58588;48.102;19.682;2023-06-26T11:23:30;99334.50;;;31.92;58.35
70930;BME280;58588;48.102;19.682;2023-06-26T11:26:40;99332.44;;;32.19;55.38
70930;BME280;58588;48.102;19.682;2023-06-26T11:29:47;99330.56;;;32.32;50.56
70930;BME280;58588;48.102;19.682;2023-06-26T11:32:50;99329.09;;;31.53;50.43
70930;BME280;58588;48.102;19.682;2023-06-26T11:35:52;99331.22;;;31.82;52.42
70930;BME280;58588;48.102;19.682;2023-06-26T11:38:54;99329.41;;;31.60;54.42
70930;BME280;58588;48.102;19.682;2023-06-26T11:41:59;99319.47;;;32.23;53.75
70930;BME280;58588;48.102;19.682;2023-06-26T11:45:01;99318.63;;;32.99;49.13
70930;BME280;58588;48.102;19.682;2023-06-26T11:48:04;99322.97;;;33.09;49.87
70930;BME280;58588;48.102;19.682;2023-06-26T11:51:06;99315.84;;;32.69;56.64
70930;BME280;58588;48.102;19.682;2023-06-26T11:54:08;99317.84;;;32.90;50.17
70930;BME280;58588;48.102;19.682;2023-06-26T11:57:15;99308.78;;;32.34;56.73
70930;BME280;58588;48.102;19.682;2023-06-26T12:00:20;99315.81;;;32.31;54.39
70930;BME280;58588;48.102;19.682;2023-06-26T12:03:22;99320.78;;;32.64;54.17
70930;BME280;58588;48.102;19.682;2023-06-26T12:06:25;99313.06;;;33.41;49.08
70930;BME280;58588;48.102;19.682;2023-06-26T12:09:27;99315.69;;;33.16;47.58
70930;BME280;58588;48.102;19.682;2023-06-26T12:12:32;99316.69;;;33.41;48.06
70930;BME280;58588;48.102;19.682;2023-06-26T12:15:34;99313.81;;;33.29;46.56
70930;BME280;58588;48.102;19.682;2023-06-26T12:18:36;99313.53;;;33.43;50.12
70930;BME280;58588;48.102;19.682;2023-06-26T12:21:47;99323.03;;;33.63;47.04
70930;BME280;58588;48.102;19.682;2023-06-26T12:24:56;99308.00;;;33.13;45.88
70930;BME280;58588;48.102;19.682;2023-06-26T12:28:00;99306.31;;;33.75;47.56
70930;BME280;58588;48.102;19.682;2023-06-26T12:31:20;99312.03;;;33.78;46.70
70930;BME280;58588;48.102;19.682;2023-06-26T12:34:28;99309.59;;;33.77;48.76
70930;BME280;58588;48.102;19.682;2023-06-26T12:37:36;99309.81;;;33.72;48.54
70930;BME280;58588;48.102;19.682;2023-06-26T12:40:45;99308.88;;;34.01;45.02
70930;BME280;58588;48.102;19.682;2023-06-26T12:43:48;99300.00;;;33.99;42.56
70930;BME280;58588;48.102;19.682;2023-06-26T12:46:54;99297.91;;;34.08;46.69
70930;BME280;58588;48.102;19.682;2023-06-26T12:49:56;99304.81;;;34.35;46.96
70930;BME280;58588;48.102;19.682;2023-06-26T12:52:59;99298.31;;;33.86;48.60
70930;BME280;58588;48.102;19.682;2023-06-26T12:56:01;99292.25;;;33.50;49.57
70930;BME280;58588;48.102;19.682;2023-06-26T12:59:04;99291.00;;;33.93;44.92
70930;BME280;58588;48.102;19.682;2023-06-26T13:02:07;99291.25;;;33.67;43.12
70930;BME280;58588;48.102;19.682;2023-06-26T13:05:11;99281.63;;;32.05;45.83
70930;BME280;58588;48.102;19.682;2023-06-26T13:08:13;99278.03;;;32.42;47.05
70930;BME280;58588;48.102;19.682;2023-06-26T13:11:17;99277.00;;;33.06;46.00
70930;BME280;58588;48.102;19.682;2023-06-26T13:14:21;99278.72;;;32.39;45.28
70930;BME280;58588;48.102;19.682;2023-06-26T13:17:23;99280.59;;;33.07;46.15
70930;BME280;58588;48.102;19.682;2023-06-26T13:20:25;99274.69;;;33.95;44.08
70930;BME280;58588;48.102;19.682;2023-06-26T13:23:27;99271.56;;;34.09;46.00
70930;BME280;58588;48.102;19.682;2023-06-26T13:26:30;99267.03;;;34.29;44.73
70930;BME280;58588;48.102;19.682;2023-06-26T13:29:33;99269.72;;;32.63;44.71
70930;BME280;58588;48.102;19.682;2023-06-26T13:32:35;99263.19;;;34.09;46.74
70930;BME280;58588;48.102;19.682;2023-06-26T13:35:37;99258.66;;;34.53;46.17
70930;BME280;58588;48.102;19.682;2023-06-26T13:38:39;99261.09;;;34.67;46.47
70930;BME280;58588;48.102;19.682;2023-06-26T13:41:41;99264.38;;;34.57;43.57
70930;BME280;58588;48.102;19.682;2023-06-26T13:44:45;99256.88;;;34.73;43.25
70930;BME280;58588;48.102;19.682;2023-06-26T13:47:47;99244.41;;;33.64;42.84
70930;BME280;58588;48.102;19.682;2023-06-26T13:50:50;99254.09;;;34.61;42.95
70930;BME280;58588;48.102;19.682;2023-06-26T13:53:52;99254.34;;;34.56;42.11
70930;BME280;58588;48.102;19.682;2023-06-26T13:56:55;99239.97;;;34.70;41.29
70930;BME280;58588;48.102;19.682;2023-06-26T13:59:59;99233.44;;;34.53;41.21
70930;BME280;58588;48.102;19.682;2023-06-26T14:03:04;99240.31;;;34.68;40.96
70930;BME280;58588;48.102;19.682;2023-06-26T14:06:07;99234.31;;;34.82;40.91
70930;BME280;58588;48.102;19.682;2023-06-26T14:09:09;99236.44;;;34.85;42.98
70930;BME280;58588;48.102;19.682;2023-06-26T14:12:11;99235.91;;;35.07;42.13
70930;BME280;58588;48.102;19.682;2023-06-26T14:15:14;99232.75;;;35.37;38.52
70930;BME280;58588;48.102;19.682;2023-06-26T14:18:16;99234.56;;;35.57;41.75
70930;BME280;58588;48.102;19.682;2023-06-26T14:21:19;99222.16;;;35.30;38.54
70930;BME280;58588;48.102;19.682;2023-06-26T14:24:21;99236.78;;;35.96;42.30
70930;BME280;58588;48.102;19.682;2023-06-26T14:27:23;99224.94;;;35.02;38.65
70930;BME280;58588;48.102;19.682;2023-06-26T14:30:26;99225.81;;;35.19;39.56
70930;BME280;58588;48.102;19.682;2023-06-26T14:33:28;99213.94;;;35.37;42.83
70930;BME280;58588;48.102;19.682;2023-06-26T14:36:30;99226.50;;;35.56;38.89
70930;BME280;58588;48.102;19.682;2023-06-26T14:39:32;99215.06;;;35.92;41.24
70930;BME280;58588;48.102;19.682;2023-06-26T14:42:34;99214.50;;;36.03;41.02
70930;BME280;58588;48.102;19.682;2023-06-26T14:45:38;99216.84;;;34.60;39.92
70930;BME280;58588;48.102;19.682;2023-06-26T14:48:40;99217.72;;;35.73;39.70
70930;BME280;58588;48.102;19.682;2023-06-26T14:51:42;99205.25;;;35.86;39.70
70930;BME280;58588;48.102;19.682;2023-06-26T14:54:44;99206.91;;;35.87;39.02
70930;BME280;58588;48.102;19.682;2023-06-26T14:57:46;99208.53;;;36.04;39.08
70930;BME280;58588;48.102;19.682;2023-06-26T15:00:49;99213.47;;;35.79;37.36
70930;BME280;58588;48.102;19.682;2023-06-26T15:03:52;99207.34;;;36.21;37.59
70930;BME280;58588;48.102;19.682;2023-06-26T15:06:56;99211.69;;;36.69;38.67
70930;BME280;58588;48.102;19.682;2023-06-26T15:09:58;99200.38;;;37.20;38.28
70930;BME280;58588;48.102;19.682;2023-06-26T15:13:01;99199.84;;;38.26;36.00
70930;BME280;58588;48.102;19.682;2023-06-26T15:16:04;99192.06;;;38.16;37.02
70930;BME280;58588;48.102;19.682;2023-06-26T15:19:06;99197.84;;;38.00;35.46
70930;BME280;58588;48.102;19.682;2023-06-26T15:22:09;99189.19;;;38.65;33.64
70930;BME280;58588;48.102;19.682;2023-06-26T15:25:11;99187.28;;;38.20;33.17
70930;BME280;58588;48.102;19.682;2023-06-26T15:28:13;99188.38;;;38.12;33.41
70930;BME280;58588;48.102;19.682;2023-06-26T15:31:17;99186.56;;;38.49;33.05
70930;BME280;58588;48.102;19.682;2023-06-26T15:34:19;99194.50;;;38.70;31.48
70930;BME280;58588;48.102;19.682;2023-06-26T15:37:21;99191.44;;;39.13;30.87
70930;BME280;58588;48.102;19.682;2023-06-26T15:40:23;99186.81;;;39.27;32.25
70930;BME280;58588;48.102;19.682;2023-06-26T15:43:25;99192.13;;;39.02;35.76
70930;BME280;58588;48.102;19.682;2023-06-26T15:46:28;99187.03;;;39.49;33.09
70930;BME280;58588;48.102;19.682;2023-06-26T15:49:30;99182.84;;;40.83;30.66
70930;BME280;58588;48.102;19.682;2023-06-26T15:52:33;99171.72;;;41.29;26.95
70930;BME280;58588;48.102;19.682;2023-06-26T15:55:35;99173.78;;;42.57;26.35